Time;durP1;ratioP1;P1;durP2;ratioP2;P2;SDS_P1;SDS_P2;PMS_P1;PMS_P2;Temp;Humidity;BMP_temperature;BMP_pressure;BME280_temperature;BME280_humidity;BME280_pressure;Samples;Min_cycle;Max_cycle;Signal;HPM_P1;HPM_P2
2022/09/18 00:00:48;;;;;;;3.20;3.00;;;;;;;20.21;82.90;93591.69;5054029;28;21006;-86
2022/09/18 00:03:16;;;;;;;3.63;2.77;;;;;;;20.20;78.62;93585.53;5054155;28;20438;-88
2022/09/18 00:05:43;;;;;;;5.67;3.30;;;;;;;20.18;79.11;93592.13;5053794;28;20454;-86
2022/09/18 00:08:10;;;;;;;4.60;2.40;;;;;;;20.34;78.03;93592.38;5053769;28;20453;-87
2022/09/18 00:10:41;;;;;;;4.10;3.07;;;;;;;20.44;80.46;93593.72;5053859;28;20454;-88
2022/09/18 00:13:08;;;;;;;4.90;2.73;;;;;;;20.37;80.71;93599.91;5053904;28;20478;-87
2022/09/18 00:15:34;;;;;;;6.80;3.70;;;;;;;20.16;83.32;93604.84;5053887;28;20449;-89
2022/09/18 00:18:03;;;;;;;7.20;3.00;;;;;;;20.00;84.33;93604.41;5053657;28;20932;-88
2022/09/18 00:20:30;;;;;;;3.20;2.90;;;;;;;19.81;86.11;93629.34;5054129;28;20937;-89
2022/09/18 00:22:58;;;;;;;3.33;3.10;;;;;;;19.66;86.88;93636.81;5054033;28;20434;-88
2022/09/18 00:25:25;;;;;;;3.23;2.93;;;;;;;19.32;88.50;93640.69;5053627;28;20446;-89
2022/09/18 00:27:51;;;;;;;3.43;2.77;;;;;;;18.96;89.54;93659.91;5053853;28;20442;-88
2022/09/18 00:30:18;;;;;;;3.30;2.70;;;;;;;18.51;91.01;93681.09;5053859;28;20465;-89
2022/09/18 00:32:45;;;;;;;4.23;2.87;;;;;;;18.31;92.67;93691.75;5054019;28;20453;-88
2022/09/18 00:35:13;;;;;;;2.90;2.70;;;;;;;18.20;92.44;93706.44;5053925;28;20795;-87
2022/09/18 00:37:40;;;;;;;3.45;2.78;;;;;;;17.77;91.85;93714.00;5053057;28;20448;-88
2022/09/18 00:40:09;;;;;;;2.63;2.20;;;;;;;17.34;91.79;93716.94;5053619;28;20215;-88
2022/09/18 00:42:36;;;;;;;3.03;2.10;;;;;;;16.98;90.39;93713.75;5053421;28;20518;-87
2022/09/18 00:45:03;;;;;;;1.70;1.60;;;;;;;16.48;91.62;93694.56;5053308;28;20441;-87
2022/09/18 00:47:35;;;;;;;1.80;1.70;;;;;;;16.13;92.17;93711.41;5054155;28;20450;-88
2022/09/18 00:50:10;;;;;;;2.33;2.13;;;;;;;15.91;93.41;93731.81;5054788;28;20464;-88
2022/09/18 00:52:50;;;;;;;5.10;1.67;;;;;;;15.68;94.13;93732.03;5054332;28;20518;-88
2022/09/18 00:58:39;;;;;;;2.13;1.93;;;;;;;15.23;93.88;93770.97;5053012;28;20432;-89
2022/09/18 01:01:07;;;;;;;1.80;1.40;;;;;;;14.98;92.19;93775.72;5052798;28;20607;-88
2022/09/18 01:03:34;;;;;;;1.50;1.40;;;;;;;14.82;91.84;93779.41;5053285;28;20445;-86
2022/09/18 01:06:13;;;;;;;1.40;1.30;;;;;;;14.57;92.96;93760.38;5052824;28;20933;-87
2022/09/18 01:08:55;;;;;;;1.77;1.67;;;;;;;14.47;92.88;93793.34;5053232;28;20897;-87
2022/09/18 01:11:36;;;;;;;2.43;1.57;;;;;;;14.37;93.43;93808.56;5052805;28;20438;-88
2022/09/18 01:14:22;;;;;;;2.10;1.47;;;;;;;14.30;92.78;93819.00;5019134;28;20481;-89
2022/09/18 01:16:58;;;;;;;1.40;1.30;;;;;;;14.10;93.71;93826.59;5052693;28;20445;-88
2022/09/18 01:19:50;;;;;;;1.30;1.20;;;;;;;13.84;93.81;93828.78;5052562;28;20511;-87
2022/09/18 01:22:31;;;;;;;2.83;1.30;;;;;;;13.75;92.87;93857.03;5052641;28;20446;-87
2022/09/18 01:25:23;;;;;;;1.77;1.00;;;;;;;13.54;93.86;93852.34;5052875;28;20844;-86
2022/09/18 01:28:10;;;;;;;1.30;1.10;;;;;;;13.33;94.08;93857.44;5017743;28;20454;-87
2022/09/18 01:30:41;;;;;;;1.30;1.10;;;;;;;13.18;93.33;93877.56;5053560;28;20444;-87
2022/09/18 01:33:13;;;;;;;1.20;1.10;;;;;;;13.07;93.23;93868.22;5056521;28;20437;-87
2022/09/18 01:35:46;;;;;;;1.10;0.90;;;;;;;12.87;93.34;93865.13;5056800;28;20433;-87
2022/09/18 01:38:19;;;;;;;1.30;1.20;;;;;;;12.72;94.22;93858.91;5056833;28;20455;-89
2022/09/18 01:40:50;;;;;;;1.73;1.10;;;;;;;12.62;95.13;93882.78;5056391;28;20450;-88
2022/09/18 01:43:21;;;;;;;1.00;0.90;;;;;;;12.49;93.91;93835.13;5056854;28;20781;-88
2022/09/18 01:45:51;;;;;;;1.20;1.00;;;;;;;12.50;95.01;93880.69;5056845;28;20448;-87
2022/09/18 01:48:25;;;;;;;1.20;1.10;;;;;;;12.45;95.47;93911.94;5056276;28;20530;-87
2022/09/18 01:50:56;;;;;;;1.00;0.90;;;;;;;12.35;94.26;93933.13;5056889;28;20842;-86
2022/09/18 01:53:28;;;;;;;1.10;1.00;;;;;;;12.39;95.07;93944.97;5056271;28;20485;-87
2022/09/18 01:56:01;;;;;;;1.40;1.00;;;;;;;12.40;94.74;93949.25;5056435;28;20444;-86
2022/09/18 01:58:34;;;;;;;1.17;1.00;;;;;;;12.36;93.90;93963.72;5053936;28;20438;-88
2022/09/18 02:01:05;;;;;;;3.00;1.07;;;;;;;12.37;95.95;93960.91;5056016;28;20532;-88
2022/09/18 02:03:35;;;;;;;1.10;1.00;;;;;;;12.37;95.18;93965.34;5055945;28;20426;-86
2022/09/18 02:06:06;;;;;;;1.67;1.00;;;;;;;12.25;96.45;93967.50;5056143;28;20445;-89
2022/09/18 02:08:40;;;;;;;1.37;1.03;;;;;;;12.24;98.12;93979.00;5056066;28;20445;-87
2022/09/18 02:11:10;;;;;;;1.10;1.00;;;;;;;12.16;99.11;93984.25;5055816;28;20445;-88
2022/09/18 02:13:42;;;;;;;1.10;1.00;;;;;;;12.06;99.33;93997.53;5055615;28;20489;-88
2022/09/18 02:16:14;;;;;;;1.20;1.10;;;;;;;11.97;99.59;94002.94;5055932;28;20460;-87
2022/09/18 02:18:45;;;;;;;1.20;1.03;;;;;;;11.71;99.91;94016.13;5055728;28;20430;-85
2022/09/18 02:21:16;;;;;;;1.03;0.93;;;;;;;11.53;100.00;94018.81;5055315;28;20964;-86
2022/09/18 02:23:43;;;;;;;1.40;1.30;;;;;;;11.50;100.00;94045.41;5055420;28;20452;-87
2022/09/18 02:26:14;;;;;;;2.90;1.10;;;;;;;11.50;100.00;94029.66;5055892;28;20449;-86
2022/09/18 02:28:44;;;;;;;1.23;1.10;;;;;;;11.41;100.00;94043.75;5055318;28;20469;-88
2022/09/18 02:31:12;;;;;;;1.10;1.00;;;;;;;11.36;100.00;94046.84;5055328;28;20961;-88
2022/09/18 02:33:39;;;;;;;1.30;1.20;;;;;;;11.38;100.00;94063.25;5055834;28;20445;-89
2022/09/18 02:36:31;;;;;;;1.30;1.10;;;;;;;11.40;100.00;94090.19;5055822;28;20477;-88
2022/09/18 02:39:12;;;;;;;1.47;1.37;;;;;;;11.38;99.54;94094.78;5013564;28;20451;-88
2022/09/18 02:41:47;;;;;;;1.57;1.40;;;;;;;11.38;100.00;94093.97;5013558;28;20860;-87
2022/09/18 02:44:20;;;;;;;1.00;0.90;;;;;;;11.39;100.00;94087.72;5013633;28;20489;-87
2022/09/18 02:46:59;;;;;;;1.20;1.10;;;;;;;11.24;99.92;94103.22;5013461;28;20942;-87
2022/09/18 02:49:35;;;;;;;2.40;1.30;;;;;;;11.19;100.00;94079.22;5013250;28;20874;-87
2022/09/18 02:52:06;;;;;;;1.57;1.47;;;;;;;11.13;100.00;94074.59;5013424;28;20472;-88
2022/09/18 02:54:40;;;;;;;1.30;1.20;;;;;;;11.10;100.00;94112.47;5012984;28;20542;-86
2022/09/18 02:57:13;;;;;;;1.50;1.40;;;;;;;10.95;99.19;94092.97;5013055;28;20454;-87
2022/09/18 02:59:45;;;;;;;1.60;1.50;;;;;;;10.89;99.38;94111.97;5012792;28;20494;-87
2022/09/18 03:02:12;;;;;;;1.60;1.50;;;;;;;10.87;100.00;94121.78;5013172;28;20466;-87
2022/09/18 03:04:39;;;;;;;1.40;1.30;;;;;;;10.89;100.00;94142.63;5013529;28;20478;-87
2022/09/18 03:07:06;;;;;;;1.50;1.40;;;;;;;10.90;98.98;94150.34;5012605;28;20985;-87
2022/09/18 03:09:33;;;;;;;1.30;1.20;;;;;;;10.83;97.90;94157.19;5012980;28;20498;-86
2022/09/18 03:12:01;;;;;;;1.70;1.57;;;;;;;10.78;98.87;94149.75;5012962;28;20449;-87
2022/09/18 03:14:28;;;;;;;1.57;1.47;;;;;;;10.78;98.51;94128.78;5012744;28;20482;-85
2022/09/18 03:16:56;;;;;;;1.87;1.77;;;;;;;10.68;96.78;94125.38;5047580;28;20487;-86
2022/09/18 03:19:23;;;;;;;1.60;1.50;;;;;;;10.70;96.70;94154.13;5054676;28;20446;-86
2022/09/18 03:21:51;;;;;;;2.03;1.93;;;;;;;10.65;95.66;94159.78;5054567;28;20459;-86
2022/09/18 03:24:19;;;;;;;1.70;1.60;;;;;;;10.63;95.27;94171.41;5054376;28;20453;-86
2022/09/18 03:26:47;;;;;;;1.90;1.80;;;;;;;10.67;95.71;94170.94;5054565;28;20449;-87
2022/09/18 03:29:14;;;;;;;1.70;1.60;;;;;;;10.65;96.00;94169.44;5054514;28;20455;-87
2022/09/18 03:31:41;;;;;;;1.70;1.60;;;;;;;10.57;94.97;94145.75;5054586;28;20449;-86
2022/09/18 03:34:09;;;;;;;1.57;1.40;;;;;;;10.58;95.10;94152.66;5054525;28;20486;-85
2022/09/18 03:36:37;;;;;;;2.27;2.07;;;;;;;10.60;94.79;94156.78;5054439;28;20461;-86
2022/09/18 03:39:04;;;;;;;1.70;1.60;;;;;;;10.54;94.93;94167.88;5054167;28;20460;-87
2022/09/18 03:41:31;;;;;;;1.77;1.67;;;;;;;10.53;93.61;94176.72;5054195;28;20452;-86
2022/09/18 03:43:58;;;;;;;5.90;3.13;;;;;;;10.53;95.11;94164.44;5053933;28;20458;-87
2022/09/18 03:46:25;;;;;;;1.90;1.80;;;;;;;10.63;94.40;94177.47;5054234;28;20459;-86
2022/09/18 03:48:52;;;;;;;2.30;2.10;;;;;;;10.62;93.50;94170.56;5054291;28;20820;-85
2022/09/18 03:51:21;;;;;;;4.97;3.57;;;;;;;10.61;93.20;94182.03;5054161;28;20444;-87
2022/09/18 03:53:49;;;;;;;2.33;2.20;;;;;;;10.58;92.84;94192.00;5053359;28;20475;-87
2022/09/18 03:56:17;;;;;;;1.60;1.50;;;;;;;10.58;92.68;94208.56;5053829;28;20444;-88
2022/09/18 03:58:44;;;;;;;1.97;1.87;;;;;;;10.61;93.01;94220.56;5054280;28;20447;-87
2022/09/18 04:01:12;;;;;;;2.30;2.20;;;;;;;10.57;92.04;94233.16;5054329;28;20456;-85
2022/09/18 04:03:39;;;;;;;2.40;2.20;;;;;;;10.55;92.14;94242.97;5054780;28;20443;-87
2022/09/18 04:06:07;;;;;;;2.40;2.20;;;;;;;10.59;92.61;94256.63;5054571;28;20455;-87
2022/09/18 04:08:36;;;;;;;2.80;1.90;;;;;;;10.57;91.02;94241.03;5054930;28;20486;-86
2022/09/18 04:11:04;;;;;;;3.10;2.30;;;;;;;10.61;91.83;94252.06;5054861;28;20472;-85
2022/09/18 04:13:31;;;;;;;2.00;1.90;;;;;;;10.57;90.79;94263.81;5054802;28;20528;-86
2022/09/18 04:15:58;;;;;;;2.50;2.30;;;;;;;10.51;91.64;94273.94;5054259;28;20490;-87
2022/09/18 04:18:25;;;;;;;2.27;2.07;;;;;;;10.55;91.12;94280.53;5053746;28;20460;-85
2022/09/18 04:20:52;;;;;;;2.30;2.20;;;;;;;10.58;91.75;94274.16;5053521;28;20524;-86
2022/09/18 04:23:19;;;;;;;2.50;2.30;;;;;;;10.67;91.76;94291.66;5053081;28;20452;-85
2022/09/18 04:25:48;;;;;;;2.97;2.67;;;;;;;10.79;92.08;94297.56;5053291;28;20453;-84
2022/09/18 04:28:15;;;;;;;2.10;2.00;;;;;;;10.79;90.74;94308.03;5053831;28;20505;-84
2022/09/18 04:30:42;;;;;;;2.73;2.53;;;;;;;10.75;90.33;94312.75;5019687;28;20448;-88
2022/09/18 04:33:08;;;;;;;2.67;2.50;;;;;;;10.75;91.11;94311.94;5054615;28;20444;-87
2022/09/18 04:35:35;;;;;;;2.47;2.37;;;;;;;10.69;90.91;94317.75;5054931;28;20842;-88
2022/09/18 04:38:02;;;;;;;3.17;2.83;;;;;;;10.63;91.20;94313.06;5055021;28;20463;-89
2022/09/18 04:40:30;;;;;;;2.77;2.57;;;;;;;10.54;92.49;94315.59;5054855;28;20447;-86
2022/09/18 04:42:58;;;;;;;3.00;2.70;;;;;;;10.65;92.32;94342.63;5054552;28;20444;-87
2022/09/18 04:45:25;;;;;;;4.07;3.13;;;;;;;10.59;92.51;94343.19;5054458;28;20524;-89
2022/09/18 04:47:52;;;;;;;3.63;3.33;;;;;;;10.50;93.61;94339.66;5054170;28;20463;-86
2022/09/18 04:50:19;;;;;;;3.00;2.80;;;;;;;10.61;94.82;94349.13;5054083;28;20464;-86
2022/09/18 04:52:46;;;;;;;7.77;3.63;;;;;;;10.61;95.65;94365.69;5054019;28;20483;-87
2022/09/18 04:55:13;;;;;;;2.90;2.70;;;;;;;10.58;93.53;94362.53;5054199;28;20479;-90
2022/09/18 04:57:41;;;;;;;2.90;2.70;;;;;;;10.64;93.93;94370.66;5054289;28;20442;-84
2022/09/18 05:00:11;;;;;;;2.73;2.53;;;;;;;10.70;94.49;94377.16;5040695;28;20462;-89
2022/09/18 05:02:39;;;;;;;3.60;3.33;;;;;;;10.79;97.01;94381.53;5054731;28;20467;-92
2022/09/18 05:05:06;;;;;;;2.33;2.13;;;;;;;10.81;93.97;94387.47;5054177;28;20466;-89
2022/09/18 05:07:35;;;;;;;2.80;2.60;;;;;;;10.81;94.39;94397.97;5054151;28;20451;-84
2022/09/18 05:10:02;;;;;;;2.63;2.43;;;;;;;10.79;93.94;94410.41;5053345;28;20441;-83
2022/09/18 05:19:13;;;;;;;2.53;2.33;;;;;;;10.80;92.99;94417.31;5052705;28;20464;-85
2022/09/18 05:21:40;;;;;;;5.63;2.00;;;;;;;10.88;93.61;94430.53;5053342;28;20807;-81
2022/09/18 05:24:07;;;;;;;3.00;2.20;;;;;;;10.91;91.70;94448.63;5018697;28;20452;-86
2022/09/18 05:26:36;;;;;;;2.60;2.40;;;;;;;11.00;91.59;94458.28;5053347;28;20821;-85
2022/09/18 05:29:03;;;;;;;8.33;2.53;;;;;;;11.06;91.85;94452.44;5018823;28;20457;-84
2022/09/18 05:31:30;;;;;;;2.60;2.40;;;;;;;11.08;90.89;94453.13;5053667;28;20440;-86
2022/09/18 05:33:58;;;;;;;2.90;2.70;;;;;;;11.10;89.68;94448.56;5053544;28;20441;-83
2022/09/18 05:36:27;;;;;;;2.63;2.43;;;;;;;11.20;89.92;94463.44;5052934;28;20485;-83
2022/09/18 05:38:54;;;;;;;2.33;2.13;;;;;;;11.17;89.77;94460.13;5018196;28;20472;-84
2022/09/18 05:41:20;;;;;;;3.37;2.40;;;;;;;11.25;87.99;94455.94;5052830;28;20917;-83
2022/09/18 05:43:47;;;;;;;2.57;2.37;;;;;;;11.39;88.55;94469.44;5053272;28;20457;-83
2022/09/18 05:46:14;;;;;;;2.03;1.93;;;;;;;11.43;87.61;94459.47;5053993;28;20888;-82
2022/09/18 05:48:41;;;;;;;4.90;2.10;;;;;;;11.46;86.82;94474.94;5053145;28;20537;-84
2022/09/18 05:51:08;;;;;;;2.67;2.40;;;;;;;11.55;86.29;94489.00;5053162;28;20519;-84
2022/09/18 05:53:36;;;;;;;2.20;2.10;;;;;;;11.60;87.13;94477.09;5053166;28;20469;-86
2022/09/18 05:56:04;;;;;;;2.60;2.40;;;;;;;11.65;88.41;94472.22;5052972;28;20517;-83
2022/09/18 05:58:30;;;;;;;2.43;2.23;;;;;;;11.70;85.99;94479.66;5052940;28;20430;-82
2022/09/18 06:01:00;;;;;;;3.13;2.60;;;;;;;11.77;86.80;94478.09;5052756;28;20444;-83
2022/09/18 06:03:27;;;;;;;2.90;2.17;;;;;;;11.77;86.93;94473.66;5052571;28;20438;-83
2022/09/18 06:05:54;;;;;;;12.07;2.10;;;;;;;11.83;85.61;94481.97;5052573;28;20950;-83
2022/09/18 06:08:22;;;;;;;2.10;2.00;;;;;;;11.80;87.21;94472.56;5052911;28;20488;-83
2022/09/18 06:10:50;;;;;;;5.93;2.40;;;;;;;11.91;85.81;94479.44;5053465;28;20503;-82
2022/09/18 06:13:18;;;;;;;2.97;2.50;;;;;;;11.91;83.27;94485.53;5053368;28;20430;-81
2022/09/18 06:29:13;;;;;;;2.17;1.97;;;;;;;11.87;81.86;94520.16;5055554;28;20452;-85
2022/09/18 06:31:40;;;;;;;5.50;1.90;;;;;;;11.91;82.01;94526.78;5056440;28;20434;-84
2022/09/18 06:34:11;;;;;;;2.10;1.83;;;;;;;11.82;81.50;94528.44;5056254;28;20862;-82
2022/09/18 06:36:38;;;;;;;3.30;2.13;;;;;;;11.82;81.87;94540.78;5056133;28;20478;-83
2022/09/18 06:39:05;;;;;;;2.33;2.13;;;;;;;11.85;81.54;94543.09;5055974;28;20508;-82
2022/09/18 06:41:32;;;;;;;2.67;2.43;;;;;;;11.78;81.96;94543.69;5056507;28;20495;-85
2022/09/18 06:43:58;;;;;;;2.63;1.97;;;;;;;11.81;81.99;94536.50;5055483;28;20793;-84
2022/09/18 06:46:27;;;;;;;2.10;2.00;;;;;;;11.83;82.23;94550.31;5055841;28;20430;-86
2022/09/18 06:48:53;;;;;;;2.30;2.10;;;;;;;11.79;82.50;94549.78;5055628;28;20913;-84
2022/09/18 06:51:20;;;;;;;3.80;2.47;;;;;;;11.77;83.01;94557.78;5055670;28;21238;-85
2022/09/18 06:57:08;;;;;;;2.70;1.80;;;;;;;11.75;82.77;94559.72;5053864;28;20431;-84
2022/09/18 06:59:36;;;;;;;3.60;2.13;;;;;;;11.78;82.62;94556.84;5054786;28;20796;-84
2022/09/18 07:02:05;;;;;;;2.80;2.60;;;;;;;11.74;83.24;94563.34;5054250;28;20928;-85
2022/09/18 07:04:32;;;;;;;2.40;2.10;;;;;;;11.85;82.09;94572.84;5054241;28;20452;-85
2022/09/18 07:06:58;;;;;;;2.37;2.17;;;;;;;11.87;81.81;94576.19;5054407;28;20458;-85
2022/09/18 07:09:25;;;;;;;7.80;2.07;;;;;;;11.92;82.20;94562.59;5054159;28;20929;-85
2022/09/18 07:11:52;;;;;;;2.03;1.83;;;;;;;11.97;80.67;94573.50;5054107;28;20461;-86
2022/09/18 07:14:19;;;;;;;2.00;1.90;;;;;;;12.03;80.38;94586.06;5054157;28;20532;-85
2022/09/18 07:16:46;;;;;;;2.13;1.93;;;;;;;12.10;80.91;94574.81;5054421;28;20489;-86
2022/09/18 07:19:14;;;;;;;2.13;1.80;;;;;;;12.19;80.25;94580.19;5053960;28;20937;-86
2022/09/18 07:21:41;;;;;;;2.00;1.80;;;;;;;12.25;77.43;94575.16;5054154;28;20508;-86
2022/09/18 07:24:08;;;;;;;2.27;1.90;;;;;;;12.34;78.35;94579.50;5018977;28;20465;-85
2022/09/18 07:26:35;;;;;;;3.20;1.87;;;;;;;12.49;78.82;94576.38;5053874;28;20441;-85
2022/09/18 07:29:02;;;;;;;2.10;1.70;;;;;;;12.62;77.71;94568.94;5053352;28;20816;-85
2022/09/18 07:31:28;;;;;;;2.33;1.90;;;;;;;12.70;77.00;94572.47;5053781;28;20444;-85
2022/09/18 07:33:56;;;;;;;3.43;2.57;;;;;;;12.84;77.42;94572.91;5054097;28;20458;-86
2022/09/18 07:36:24;;;;;;;2.20;2.00;;;;;;;12.87;76.08;94576.06;5053523;28;20857;-86
2022/09/18 07:38:51;;;;;;;2.13;2.03;;;;;;;12.82;73.85;94580.16;5019049;28;20453;-85
2022/09/18 07:41:18;;;;;;;2.23;2.07;;;;;;;12.85;74.81;94575.41;5053576;28;20437;-85
2022/09/18 07:43:48;;;;;;;2.47;1.90;;;;;;;12.92;75.00;94575.63;5051558;28;20446;-86
2022/09/18 07:46:15;;;;;;;2.43;1.80;;;;;;;13.00;74.18;94573.88;5053418;28;20454;-85
2022/09/18 07:48:42;;;;;;;2.40;2.20;;;;;;;13.08;74.81;94565.22;5053502;28;20445;-86
2022/09/18 07:51:09;;;;;;;4.30;2.07;;;;;;;13.16;73.86;94567.91;5053697;28;20481;-85
2022/09/18 07:53:37;;;;;;;2.10;1.97;;;;;;;13.25;73.38;94563.53;5053435;28;20493;-86
2022/09/18 07:56:07;;;;;;;2.30;2.10;;;;;;;13.34;73.23;94567.91;5051050;28;20477;-85
2022/09/18 07:58:34;;;;;;;2.33;2.10;;;;;;;13.37;72.84;94561.50;5053219;28;20442;-85
2022/09/18 08:01:02;;;;;;;2.00;1.90;;;;;;;13.52;72.97;94573.94;5053452;28;20433;-84
2022/09/18 08:03:30;;;;;;;2.60;2.40;;;;;;;13.65;72.80;94576.19;5018177;28;20501;-85
2022/09/18 08:05:57;;;;;;;2.37;2.17;;;;;;;13.64;71.37;94553.44;5053431;28;20517;-85
2022/09/18 08:08:24;;;;;;;2.23;2.07;;;;;;;13.57;72.38;94561.13;5053140;28;20462;-85
2022/09/18 08:10:52;;;;;;;1.93;1.83;;;;;;;13.58;71.99;94561.94;5053448;28;20456;-84
2022/09/18 08:13:19;;;;;;;3.70;1.90;;;;;;;13.59;72.20;94563.63;5053413;28;20456;-86
2022/09/18 08:15:46;;;;;;;4.13;2.27;;;;;;;13.51;70.52;94561.75;5053055;28;20490;-85
2022/09/18 08:18:12;;;;;;;2.87;1.70;;;;;;;13.49;70.09;94563.72;5053128;28;20445;-85
2022/09/18 08:20:40;;;;;;;2.37;2.20;;;;;;;13.34;69.14;94560.00;5034228;28;20444;-85
2022/09/18 08:23:08;;;;;;;2.33;2.13;;;;;;;13.28;69.78;94566.69;5053169;28;20480;-86
2022/09/18 08:25:36;;;;;;;3.03;2.10;;;;;;;13.43;69.95;94559.06;5053024;28;20496;-86
2022/09/18 08:28:06;;;;;;;3.80;1.73;;;;;;;13.87;69.23;94556.31;5053686;28;20445;-86
2022/09/18 08:30:34;;;;;;;4.10;1.90;;;;;;;14.15;65.78;94538.44;5054896;28;20461;-84
2022/09/18 08:33:02;;;;;;;3.77;2.10;;;;;;;14.32;64.26;94560.44;5054088;28;20460;-89
2022/09/18 08:45:51;;;;;;;2.20;2.00;;;;;;;15.31;65.38;94568.31;5052774;28;20424;-87
2022/09/18 08:48:22;;;;;;;1.93;1.73;;;;;;;15.54;64.22;94569.28;5054169;28;20458;-87
2022/09/18 08:50:56;;;;;;;2.63;2.00;;;;;;;15.64;63.32;94563.88;5054057;28;20791;-88
2022/09/18 08:53:28;;;;;;;4.33;1.53;;;;;;;15.71;62.29;94576.25;5054389;28;20482;-86
2022/09/18 08:55:58;;;;;;;1.80;1.70;;;;;;;15.75;61.91;94574.09;5053412;28;20483;-87
2022/09/18 08:58:29;;;;;;;2.70;2.50;;;;;;;15.97;63.09;94588.41;5053773;28;20474;-86
2022/09/18 09:01:02;;;;;;;1.80;1.70;;;;;;;16.15;60.98;94589.00;5053439;28;20449;-86
2022/09/18 09:03:34;;;;;;;2.27;1.90;;;;;;;15.74;61.61;94594.41;5018831;28;20468;-81
2022/09/18 09:06:07;;;;;;;2.10;1.90;;;;;;;15.69;60.56;94583.53;5053163;28;20461;-85
2022/09/18 09:08:59;;;;;;;1.80;1.70;;;;;;;15.75;61.02;94576.72;5053038;28;20505;-86
2022/09/18 09:11:36;;;;;;;1.50;1.40;;;;;;;15.75;59.93;94574.09;5053813;28;20453;-90
2022/09/18 09:14:17;;;;;;;2.40;1.47;;;;;;;15.78;61.93;94579.84;5054333;28;20453;-93
2022/09/18 09:16:48;;;;;;;2.53;2.33;;;;;;;15.34;63.40;94595.28;5054326;28;20488;-90
2022/09/18 09:19:27;;;;;;;2.30;2.10;;;;;;;14.63;66.21;94581.84;5054539;28;20450;-90
2022/09/18 09:22:03;;;;;;;1.97;1.77;;;;;;;14.45;67.05;94597.78;5054755;28;20437;-89
2022/09/18 09:24:33;;;;;;;2.00;1.80;;;;;;;14.11;66.73;94588.09;5054935;28;20526;-91
2022/09/18 09:27:06;;;;;;;1.93;1.83;;;;;;;14.22;67.33;94590.44;5054474;28;20441;-87
2022/09/18 09:29:36;;;;;;;3.73;2.13;;;;;;;14.51;66.43;94591.91;5053197;28;20458;-87
2022/09/18 09:32:12;;;;;;;2.20;2.00;;;;;;;14.66;66.11;94603.47;5052954;28;20442;-87
2022/09/18 09:34:47;;;;;;;1.60;1.50;;;;;;;14.74;63.81;94590.25;5052752;28;20445;-87
2022/09/18 09:37:18;;;;;;;1.87;1.77;;;;;;;14.92;64.26;94605.16;5052483;28;20489;-84
2022/09/18 09:39:49;;;;;;;1.77;1.40;;;;;;;14.87;62.74;94598.56;5035570;28;20441;-85
2022/09/18 09:42:21;;;;;;;2.17;1.87;;;;;;;15.00;63.73;94598.06;5053070;28;20457;-86
2022/09/18 09:44:54;;;;;;;2.00;1.80;;;;;;;15.13;64.28;94598.41;5053627;28;20964;-86
2022/09/18 09:47:32;;;;;;;1.70;1.60;;;;;;;15.26;64.18;94616.41;5054088;28;20432;-90
2022/09/18 09:50:15;;;;;;;2.83;1.90;;;;;;;15.33;63.64;94625.34;5054222;28;20432;-87
2022/09/18 09:52:45;;;;;;;1.93;1.60;;;;;;;15.42;61.91;94619.06;5056558;28;20488;-91
2022/09/18 09:55:21;;;;;;;4.77;1.80;;;;;;;15.30;59.56;94630.13;5058329;28;20453;-88
2022/09/18 09:57:57;;;;;;;2.00;1.90;;;;;;;15.39;60.29;94629.16;5057478;28;20481;-87
2022/09/18 10:00:24;;;;;;;2.77;2.57;;;;;;;15.56;60.43;94633.41;5057078;28;20490;-89
2022/09/18 10:03:19;;;;;;;2.97;2.67;;;;;;;15.40;60.46;94639.56;5057092;28;20644;-93
2022/09/18 10:15:56;;;;;;;4.23;3.33;;;;;;;15.47;61.38;94637.91;5056987;28;20396;-88
2022/09/18 10:18:29;;;;;;;3.23;3.00;;;;;;;15.51;61.85;94638.38;5058385;28;20816;-95
2022/09/18 10:21:03;;;;;;;3.40;3.20;;;;;;;15.87;63.00;94645.97;5058172;28;20450;-92
2022/09/18 10:23:37;;;;;;;3.43;3.13;;;;;;;16.11;60.66;94651.22;5058445;28;20456;-90
2022/09/18 10:26:05;;;;;;;4.13;3.50;;;;;;;16.21;61.33;94653.69;5057493;28;20440;-91
2022/09/18 10:28:32;;;;;;;4.03;3.73;;;;;;;15.84;60.08;94657.72;5057758;28;20463;-90
2022/09/18 10:31:01;;;;;;;3.97;3.73;;;;;;;15.53;63.74;94651.44;5057699;28;20457;-92
2022/09/18 10:33:37;;;;;;;3.80;3.50;;;;;;;15.37;63.26;94653.13;5057491;28;20454;-89
2022/09/18 10:36:15;;;;;;;3.87;3.47;;;;;;;15.18;63.46;94645.50;5056859;28;20487;-86
2022/09/18 10:38:42;;;;;;;4.40;4.00;;;;;;;15.05;65.07;94632.78;5056217;28;20463;-87
2022/09/18 10:41:23;;;;;;;4.57;4.17;;;;;;;14.93;65.12;94646.44;5056841;28;20449;-84
2022/09/18 10:43:56;;;;;;;6.80;4.70;;;;;;;14.87;66.58;94661.97;5057043;28;20924;-84
2022/09/18 10:53:25;;;;;;;5.00;4.60;;;;;;;15.57;85.76;94648.28;5046783;28;20518;-89
2022/09/18 10:55:52;;;;;;;5.70;5.20;;;;;;;15.41;64.26;94661.53;5056311;28;20457;-89
2022/09/18 10:58:28;;;;;;;6.67;5.67;;;;;;;15.54;66.83;94666.31;5056419;28;20885;-87
2022/09/18 11:01:01;;;;;;;11.23;5.53;;;;;;;15.66;63.48;94662.41;5056500;28;20455;-87
2022/09/18 11:03:43;;;;;;;5.50;5.10;;;;;;;15.67;62.40;94686.03;5056450;28;20796;-89
2022/09/18 11:06:16;;;;;;;11.10;6.70;;;;;;;15.56;63.47;94682.84;5056584;28;20429;-88
2022/09/18 11:12:15;;;;;;;6.90;5.90;;;;;;;15.48;64.36;94692.44;5054770;28;20513;-87
2022/09/18 11:14:45;;;;;;;14.77;11.37;;;;;;;15.65;62.56;94672.16;5056339;28;20485;-86
2022/09/18 11:17:23;;;;;;;35.60;27.57;;;;;;;15.45;62.91;94682.19;5055444;28;20468;-86
2022/09/18 11:19:53;;;;;;;162.20;92.33;;;;;;;15.48;65.98;94663.34;5056030;28;20539;-86
2022/09/18 11:22:37;;;;;;;162.10;105.30;;;;;;;15.45;62.56;94666.31;5055554;28;20476;-85
2022/09/18 11:25:28;;;;;;;138.23;70.87;;;;;;;15.47;63.62;94671.44;5055247;28;20443;-85
2022/09/18 11:27:58;;;;;;;75.17;43.53;;;;;;;15.47;63.15;94677.56;5054567;28;20438;-86
2022/09/18 11:30:27;;;;;;;44.37;24.33;;;;;;;15.49;62.85;94670.28;5054709;28;20464;-86
2022/09/18 11:32:59;;;;;;;23.07;16.87;;;;;;;15.38;61.84;94675.91;5054646;28;20925;-85
2022/09/18 11:35:28;;;;;;;11.43;8.37;;;;;;;15.45;61.15;94655.75;5054385;28;21002;-85
2022/09/18 11:37:59;;;;;;;5.73;5.20;;;;;;;15.34;61.43;94682.53;5054374;28;20485;-84
2022/09/18 11:40:31;;;;;;;5.37;4.87;;;;;;;15.33;61.46;94680.06;5054655;28;20456;-85
2022/09/18 11:43:04;;;;;;;14.60;8.83;;;;;;;15.48;66.32;94678.38;5054519;28;20446;-87
2022/09/18 11:45:50;;;;;;;4.70;4.40;;;;;;;15.37;62.13;94681.38;5054642;28;20955;-87
2022/09/18 11:48:30;;;;;;;5.70;4.67;;;;;;;15.36;65.21;94683.19;5054827;28;20450;-87
2022/09/18 11:51:01;;;;;;;4.20;3.90;;;;;;;15.37;61.26;94684.84;5054797;28;20468;-86
2022/09/18 11:53:32;;;;;;;4.67;3.20;;;;;;;15.32;60.00;94679.19;5054134;28;20474;-86
2022/09/18 11:56:06;;;;;;;5.53;3.87;;;;;;;15.22;59.85;94686.47;5054319;28;20448;-86
2022/09/18 11:58:40;;;;;;;7.10;3.83;;;;;;;15.16;61.40;94681.84;5054293;28;20437;-86
2022/09/18 12:01:17;;;;;;;6.77;5.43;;;;;;;15.33;66.90;94693.28;5054848;28;21035;-87
2022/09/18 12:03:50;;;;;;;4.13;3.83;;;;;;;15.46;61.87;94693.59;5055438;28;20445;-88
2022/09/18 12:06:23;;;;;;;4.93;4.53;;;;;;;15.50;60.40;94687.81;5055105;28;20463;-86
2022/09/18 12:08:56;;;;;;;4.47;4.17;;;;;;;15.48;61.14;94704.84;5055025;28;20442;-88
2022/09/18 12:11:32;;;;;;;4.40;4.10;;;;;;;15.56;61.89;94710.13;5055304;28;20854;-86
2022/09/18 12:14:12;;;;;;;4.90;4.13;;;;;;;15.58;62.13;94713.47;5054099;28;20449;-86
2022/09/18 12:16:47;;;;;;;5.40;4.17;;;;;;;15.48;60.39;94707.47;5054710;28;20481;-86
2022/09/18 12:19:20;;;;;;;4.27;3.97;;;;;;;15.37;60.43;94707.81;5055306;28;20437;-88
2022/09/18 12:21:56;;;;;;;4.40;4.00;;;;;;;15.25;59.59;94720.50;5055274;28;20449;-86
2022/09/18 12:24:22;;;;;;;4.20;3.90;;;;;;;15.14;60.86;94713.72;5055602;28;20864;-86
2022/09/18 12:26:58;;;;;;;4.70;4.27;;;;;;;15.17;62.15;94702.00;5055905;28;20446;-88
2022/09/18 12:29:39;;;;;;;4.50;4.20;;;;;;;15.26;61.06;94711.56;5054357;28;20504;-85
2022/09/18 12:32:21;;;;;;;9.43;4.00;;;;;;;15.30;60.99;94712.91;5054429;28;20463;-86
2022/09/18 12:34:57;;;;;;;7.20;4.50;;;;;;;15.29;61.13;94716.53;5053996;28;20460;-85
2022/09/18 12:37:52;;;;;;;4.90;3.50;;;;;;;15.30;60.13;94720.00;5054375;28;20478;-86
2022/09/18 12:40:36;;;;;;;3.67;3.27;;;;;;;15.19;60.07;94735.19;5012200;28;21031;-85
2022/09/18 12:43:31;;;;;;;3.80;3.40;;;;;;;15.19;60.59;94740.47;4980983;28;20439;-86
2022/09/18 12:46:19;;;;;;;4.17;3.87;;;;;;;15.24;60.37;94741.81;5012241;28;20531;-83